createdAt,value
2023-05-23T00:00:29.497Z,1006.10
2023-05-23T00:01:29.057Z,1006.09
2023-05-23T00:02:30.497Z,1006.06
2023-05-23T00:03:29.562Z,1006.09
2023-05-23T00:04:30.713Z,1006.14
2023-05-23T00:05:29.776Z,1006.14
2023-05-23T00:06:29.921Z,1006.01
2023-05-23T00:07:31.942Z,1006.04
2023-05-23T00:08:30.333Z,1005.98
2023-05-23T00:09:30.495Z,1006.05
2023-05-23T00:10:30.644Z,1006.04
2023-05-23T00:11:31.305Z,1006.05
2023-05-23T00:12:30.963Z,1006.04
2023-05-23T00:13:31.479Z,1006.04
2023-05-23T00:14:31.953Z,1006.02
2023-05-23T00:15:31.562Z,1006.02
2023-05-23T00:16:33.474Z,1005.97
2023-05-23T00:17:32.474Z,1005.97
2023-05-23T00:18:31.984Z,1005.98
2023-05-23T00:19:33.046Z,1005.95
2023-05-23T00:20:32.425Z,1005.99
2023-05-23T00:21:32.458Z,1005.93
2023-05-23T00:22:32.650Z,1006.04
2023-05-23T00:23:32.777Z,1006.06
2023-05-23T00:24:32.935Z,1005.97
2023-05-23T00:25:33.098Z,1006.04
2023-05-23T00:26:33.219Z,1006.07
2023-05-23T00:27:33.986Z,1006.05
2023-05-23T00:28:33.480Z,1006.06
2023-05-23T00:29:33.633Z,1006.08
2023-05-23T00:30:34.435Z,1006.06
2023-05-23T00:31:34.067Z,1006.05
2023-05-23T00:32:34.254Z,1005.98
2023-05-23T00:33:34.977Z,1006.06
2023-05-23T00:34:34.495Z,1006.02
2023-05-23T00:35:34.628Z,1006.01
2023-05-23T00:36:35.116Z,1006.01
2023-05-23T00:37:35.001Z,1006.02
2023-05-23T00:38:35.983Z,1006.01
2023-05-23T00:39:35.355Z,1005.98
2023-05-23T00:40:35.510Z,1005.98
2023-05-23T00:41:36.001Z,1005.99
2023-05-23T00:42:36.446Z,1006.06
2023-05-23T00:43:36.074Z,1006.03
2023-05-23T00:44:37.940Z,1006.03
2023-05-23T00:45:37.320Z,1006.09
2023-05-23T00:46:37.498Z,1006.05
2023-05-23T00:47:36.815Z,1006.11
2023-05-23T00:48:37.943Z,1006.11
2023-05-23T00:49:37.086Z,1006.14
2023-05-23T00:50:37.235Z,1006.15
2023-05-23T00:51:37.411Z,1006.14
2023-05-23T00:52:37.657Z,1006.17
2023-05-23T00:53:37.688Z,1006.21
2023-05-23T00:54:37.846Z,1006.18
2023-05-23T00:55:59.024Z,1006.12
2023-05-23T00:56:38.971Z,1006.13
2023-05-23T00:57:38.276Z,1006.09
2023-05-23T00:58:38.988Z,1006.14
2023-05-23T00:59:38.655Z,1006.14
2023-05-23T01:00:38.836Z,1006.07
2023-05-23T01:01:39.091Z,1006.17
2023-05-23T01:02:41.528Z,1006.17
2023-05-23T01:03:39.464Z,1006.16
2023-05-23T01:04:40.466Z,1006.18
2023-05-23T01:05:39.899Z,1006.19
2023-05-23T01:06:40.970Z,1006.21
2023-05-23T01:07:40.241Z,1006.24
2023-05-23T01:08:40.499Z,1006.25
2023-05-23T01:09:40.489Z,1006.26
2023-05-23T01:10:41.311Z,1006.24
2023-05-23T01:11:40.868Z,1006.30
2023-05-23T01:12:41.072Z,1006.34
2023-05-23T01:13:41.317Z,1006.34
2023-05-23T01:14:41.459Z,1006.30
2023-05-23T01:15:41.792Z,1006.30
2023-05-23T01:16:43.552Z,1006.34
2023-05-23T01:17:42.563Z,1006.34
2023-05-23T01:18:42.030Z,1006.30
2023-05-23T01:19:42.535Z,1006.31
2023-05-23T01:20:44.314Z,1006.25
2023-05-23T01:21:42.720Z,1006.33
2023-05-23T01:22:43.005Z,1006.30
2023-05-23T01:23:43.023Z,1006.33
2023-05-23T01:24:43.190Z,1006.28
2023-05-23T01:25:43.372Z,1006.31
2023-05-23T01:26:43.563Z,1006.32
2023-05-23T01:27:43.730Z,1006.31
2023-05-23T01:28:44.452Z,1006.24
2023-05-23T01:29:44.121Z,1006.20
2023-05-23T01:30:44.994Z,1006.30
2023-05-23T01:31:44.561Z,1006.31
2023-05-23T01:32:45.474Z,1006.40
2023-05-23T01:33:46.455Z,1006.39
2023-05-23T01:34:45.953Z,1006.44
2023-05-23T01:35:45.999Z,1006.46
2023-05-23T01:36:45.413Z,1006.39
2023-05-23T01:37:45.676Z,1006.42
2023-05-23T01:38:46.457Z,1006.43
2023-05-23T01:39:47.464Z,1006.46
2023-05-23T01:40:47.000Z,1006.46
2023-05-23T01:41:46.298Z,1006.48
2023-05-23T01:42:46.520Z,1006.48
2023-05-23T01:43:46.687Z,1006.55
2023-05-23T01:44:47.962Z,1006.51
2023-05-23T01:45:47.030Z,1006.63
2023-05-23T01:46:47.128Z,1006.53
2023-05-23T01:47:47.333Z,1006.56
2023-05-23T01:48:48.029Z,1006.57
2023-05-23T01:49:47.675Z,1006.59
2023-05-23T01:50:47.821Z,1006.66
2023-05-23T01:51:47.971Z,1006.67
2023-05-23T01:52:48.134Z,1006.77
2023-05-23T01:53:48.398Z,1006.70
2023-05-23T01:54:48.547Z,1006.68
2023-05-23T01:55:49.565Z,1006.71
2023-05-23T01:56:49.501Z,1006.65
2023-05-23T01:57:48.899Z,1006.76
2023-05-23T01:58:50.005Z,1006.75
2023-05-23T01:59:49.513Z,1006.74
2023-05-23T02:00:49.459Z,1006.79
2023-05-23T02:01:50.506Z,1006.78
2023-05-23T02:02:50.587Z,1006.84
2023-05-23T02:03:50.099Z,1006.88
2023-05-23T02:04:50.253Z,1006.87
2023-05-23T02:05:50.370Z,1006.91
2023-05-23T02:06:50.524Z,1006.95
2023-05-23T02:07:51.510Z,1006.89
2023-05-23T02:08:50.995Z,1006.97
2023-05-23T02:09:52.469Z,1006.87
2023-05-23T02:10:52.013Z,1006.94
2023-05-23T02:11:52.037Z,1006.95
2023-05-23T02:12:51.682Z,1006.91
2023-05-23T02:13:52.509Z,1006.98
2023-05-23T02:14:52.013Z,1006.98
2023-05-23T02:15:52.518Z,1006.94
2023-05-23T02:16:52.487Z,1006.97
2023-05-23T02:17:52.723Z,1006.96
2023-05-23T02:18:53.336Z,1006.97
2023-05-23T02:19:52.977Z,1006.91
2023-05-23T02:20:53.979Z,1007.01
2023-05-23T02:21:53.532Z,1006.92
2023-05-23T02:22:53.560Z,1007.03
2023-05-23T02:23:53.817Z,1006.99
2023-05-23T02:24:53.846Z,1006.99
2023-05-23T02:25:54.973Z,1007.03
2023-05-23T02:26:54.246Z,1006.99
2023-05-23T02:27:54.427Z,1007.04
2023-05-23T02:28:54.615Z,1007.09
2023-05-23T02:29:54.784Z,1007.04
2023-05-23T02:30:55.017Z,1007.09
2023-05-23T02:31:55.192Z,1007.10
2023-05-23T02:32:55.416Z,1007.04
2023-05-23T02:33:56.480Z,1007.09
2023-05-23T02:34:57.240Z,1007.06
2023-05-23T02:35:57.486Z,1007.06
2023-05-23T02:36:57.029Z,1007.04
2023-05-23T02:37:57.024Z,1007.07
2023-05-23T02:38:56.301Z,1007.04
2023-05-23T02:39:56.592Z,1007.07
2023-05-23T02:40:57.522Z,1007.06
2023-05-23T02:41:56.831Z,1007.08
2023-05-23T02:42:57.037Z,1007.05
2023-05-23T02:43:57.225Z,1007.04
2023-05-23T02:44:57.529Z,1007.09
2023-05-23T02:45:58.498Z,1007.10
2023-05-23T02:46:57.810Z,1007.06
2023-05-23T02:47:59.552Z,1007.06
2023-05-23T02:48:58.979Z,1007.04
2023-05-23T02:49:58.978Z,1007.06
2023-05-23T02:50:58.383Z,1007.05
2023-05-23T02:51:59.479Z,1007.02
2023-05-23T02:52:58.788Z,1007.12
2023-05-23T02:53:59.537Z,1007.01
2023-05-23T02:55:01.573Z,1007.01
2023-05-23T02:55:59.460Z,1006.98
2023-05-23T02:56:59.646Z,1006.97
2023-05-23T02:57:59.855Z,1007.00
2023-05-23T02:59:00.037Z,1007.00
2023-05-23T03:00:00.240Z,1006.97
2023-05-23T03:01:00.339Z,1006.93
2023-05-23T03:02:01.088Z,1006.97
2023-05-23T03:03:00.717Z,1006.96
2023-05-23T03:04:00.855Z,1007.00
2023-05-23T03:05:02.039Z,1006.92
2023-05-23T03:06:02.014Z,1006.97
2023-05-23T03:07:01.563Z,1006.97
2023-05-23T03:08:01.601Z,1006.99
2023-05-23T03:09:01.742Z,1006.89
2023-05-23T03:10:02.475Z,1006.84
2023-05-23T03:11:03.117Z,1006.88
2023-05-23T03:12:02.531Z,1006.90
2023-05-23T03:13:02.427Z,1006.85
2023-05-23T03:14:02.584Z,1006.89
2023-05-23T03:15:02.730Z,1006.89
2023-05-23T03:16:03.510Z,1006.92
2023-05-23T03:17:03.063Z,1006.94
2023-05-23T03:18:05.975Z,1006.91
2023-05-23T03:19:03.399Z,1006.87
2023-05-23T03:20:04.983Z,1006.88
2023-05-23T03:21:04.524Z,1006.87
2023-05-23T03:22:03.947Z,1006.88
2023-05-23T03:23:05.041Z,1006.89
2023-05-23T03:24:04.296Z,1006.89
2023-05-23T03:25:06.987Z,1006.91
2023-05-23T03:26:04.582Z,1006.90
2023-05-23T03:27:05.589Z,1006.89
2023-05-23T03:28:04.870Z,1006.94
2023-05-23T03:29:05.042Z,1006.95
2023-05-23T03:30:05.988Z,1006.94
2023-05-23T03:31:06.023Z,1006.96
2023-05-23T03:32:05.561Z,1006.95
2023-05-23T03:33:07.160Z,1006.99
2023-05-23T03:34:05.795Z,1006.98
2023-05-23T03:35:05.983Z,1006.90
2023-05-23T03:36:06.171Z,1006.98
2023-05-23T03:37:06.358Z,1006.93
2023-05-23T03:38:06.525Z,1006.91
2023-05-23T03:39:07.489Z,1006.94
2023-05-23T03:40:06.864Z,1006.97
2023-05-23T03:41:08.010Z,1006.97
2023-05-23T03:42:07.142Z,1006.98
2023-05-23T03:43:09.116Z,1006.99
2023-05-23T03:44:08.984Z,1006.97
2023-05-23T03:45:07.607Z,1006.95
2023-05-23T03:46:07.828Z,1006.91
2023-05-23T03:47:08.993Z,1006.93
2023-05-23T03:48:08.133Z,1006.97
2023-05-23T03:49:08.532Z,1006.91
2023-05-23T03:50:09.037Z,1006.97
2023-05-23T03:51:09.038Z,1006.91
2023-05-23T03:52:08.815Z,1006.93
2023-05-23T03:53:08.970Z,1006.92
2023-05-23T03:54:09.114Z,1006.94
2023-05-23T03:55:09.567Z,1006.93
2023-05-23T03:56:09.487Z,1006.92
2023-05-23T03:57:10.528Z,1006.98
2023-05-23T03:58:09.790Z,1007.03
2023-05-23T03:59:11.099Z,1006.96
2023-05-23T04:00:10.102Z,1006.96
2023-05-23T04:01:10.276Z,1006.98
2023-05-23T04:02:10.571Z,1006.98
2023-05-23T04:03:44.189Z,1007.02
2023-05-23T04:04:12.063Z,1007.04
2023-05-23T04:05:11.120Z,1007.04
2023-05-23T04:06:13.657Z,1007.10
2023-05-23T04:07:13.053Z,1007.08
2023-05-23T04:08:12.464Z,1007.09
2023-05-23T04:09:12.885Z,1007.09
2023-05-23T04:10:12.027Z,1007.10
2023-05-23T04:11:15.397Z,1007.05
2023-05-23T04:12:12.388Z,1007.09
2023-05-23T04:13:12.572Z,1007.09
2023-05-23T04:14:12.882Z,1007.12
2023-05-23T04:15:12.929Z,1007.12
2023-05-23T04:16:15.056Z,1007.12
2023-05-23T04:17:13.306Z,1007.18
2023-05-23T04:18:13.482Z,1007.15
2023-05-23T04:19:13.664Z,1007.16
2023-05-23T04:20:14.523Z,1007.19
2023-05-23T04:21:14.578Z,1007.19
2023-05-23T04:22:15.113Z,1007.17
2023-05-23T04:23:15.062Z,1007.23
2023-05-23T04:24:15.018Z,1007.19
2023-05-23T04:25:14.679Z,1007.22
2023-05-23T04:26:14.863Z,1007.26
2023-05-23T04:27:15.040Z,1007.29
2023-05-23T04:28:15.246Z,1007.26
2023-05-23T04:29:17.127Z,1007.24
2023-05-23T04:30:16.587Z,1007.28
2023-05-23T04:31:16.124Z,1007.37
2023-05-23T04:32:16.061Z,1007.33
2023-05-23T04:33:16.902Z,1007.37
2023-05-23T04:34:16.443Z,1007.33
2023-05-23T04:35:16.607Z,1007.31
2023-05-23T04:36:17.135Z,1007.34
2023-05-23T04:37:17.553Z,1007.36
2023-05-23T04:38:17.075Z,1007.36
2023-05-23T04:39:17.269Z,1007.37
2023-05-23T04:40:17.443Z,1007.36
2023-05-23T04:41:17.654Z,1007.44
2023-05-23T04:42:17.842Z,1007.40
2023-05-23T04:43:18.088Z,1007.48
2023-05-23T04:44:18.265Z,1007.34
2023-05-23T04:45:18.540Z,1007.46
2023-05-23T04:46:18.650Z,1007.42
2023-05-23T04:47:19.592Z,1007.46
2023-05-23T04:48:18.858Z,1007.44
2023-05-23T04:49:19.040Z,1007.44
2023-05-23T04:50:20.044Z,1007.55
2023-05-23T04:51:20.566Z,1007.43
2023-05-23T04:52:21.541Z,1007.46
2023-05-23T04:53:20.097Z,1007.49
2023-05-23T04:54:19.955Z,1007.42
2023-05-23T04:55:22.090Z,1007.48
2023-05-23T04:56:22.190Z,1007.44
2023-05-23T04:57:20.459Z,1007.46
2023-05-23T04:58:20.612Z,1007.51
2023-05-23T04:59:20.782Z,1007.52
2023-05-23T05:00:20.930Z,1007.50
2023-05-23T05:01:24.298Z,1007.51
2023-05-23T05:02:22.311Z,1007.58
2023-05-23T05:03:22.088Z,1007.54
2023-05-23T05:04:21.730Z,1007.51
2023-05-23T05:05:21.794Z,1007.59
2023-05-23T05:06:21.979Z,1007.61
2023-05-23T05:07:23.093Z,1007.62
2023-05-23T05:08:23.113Z,1007.61
2023-05-23T05:09:23.549Z,1007.65
2023-05-23T05:10:22.701Z,1007.64
2023-05-23T05:11:23.600Z,1007.60
2023-05-23T05:12:24.545Z,1007.65
2023-05-23T05:13:23.166Z,1007.65
2023-05-23T05:14:23.338Z,1007.62
2023-05-23T05:15:24.051Z,1007.63
2023-05-23T05:16:23.840Z,1007.71
2023-05-23T05:17:25.765Z,1007.72
2023-05-23T05:18:25.097Z,1007.67
2023-05-23T05:19:46.992Z,1007.65
2023-05-23T05:20:24.469Z,1007.67
2023-05-23T05:21:25.495Z,1007.77
2023-05-23T05:22:24.868Z,1007.72
2023-05-23T05:23:25.102Z,1007.73
2023-05-23T05:24:25.268Z,1007.69
2023-05-23T05:25:26.094Z,1007.72
2023-05-23T05:26:25.625Z,1007.74
2023-05-23T05:27:27.806Z,1007.75
2023-05-23T05:28:26.034Z,1007.69
2023-05-23T05:29:26.223Z,1007.67
2023-05-23T05:30:26.396Z,1007.74
2023-05-23T05:31:26.550Z,1007.80
2023-05-23T05:32:26.754Z,1007.76
2023-05-23T05:33:27.591Z,1007.76
2023-05-23T05:34:26.974Z,1007.80
2023-05-23T05:35:27.110Z,1007.78
2023-05-23T05:36:27.244Z,1007.84
2023-05-23T05:37:27.613Z,1007.80
2023-05-23T05:38:27.501Z,1007.80
2023-05-23T05:39:28.633Z,1007.75
2023-05-23T05:40:28.564Z,1007.81
2023-05-23T05:41:27.939Z,1007.89
2023-05-23T05:42:28.129Z,1007.83
2023-05-23T05:43:28.326Z,1007.83
2023-05-23T05:44:30.060Z,1007.86
2023-05-23T05:45:28.704Z,1007.91
2023-05-23T05:46:29.633Z,1007.90
2023-05-23T05:47:29.603Z,1007.86
2023-05-23T05:48:29.273Z,1007.88
2023-05-23T05:49:29.551Z,1007.95
2023-05-23T05:50:29.576Z,1007.91
2023-05-23T05:51:30.600Z,1007.90
2023-05-23T05:52:29.874Z,1007.86
2023-05-23T05:53:30.928Z,1007.92
2023-05-23T05:54:30.216Z,1007.91
2023-05-23T05:55:31.112Z,1007.93
2023-05-23T05:56:31.567Z,1007.97
2023-05-23T05:57:31.573Z,1008.00
2023-05-23T05:58:31.004Z,1008.02
2023-05-23T05:59:32.531Z,1007.99
2023-05-23T06:00:32.392Z,1008.03
2023-05-23T06:01:32.067Z,1008.02
2023-05-23T06:02:31.873Z,1008.00
2023-05-23T06:03:31.916Z,1008.04
2023-05-23T06:04:32.148Z,1008.06
2023-05-23T06:05:32.274Z,1008.08
2023-05-23T06:06:32.457Z,1008.11
2023-05-23T06:07:32.676Z,1008.10
2023-05-23T06:08:33.112Z,1008.08
2023-05-23T06:09:33.059Z,1008.10
2023-05-23T06:10:33.231Z,1008.11
2023-05-23T06:11:33.407Z,1008.01
2023-05-23T06:12:33.572Z,1008.13
2023-05-23T06:13:35.300Z,1008.13
2023-05-23T06:14:35.571Z,1008.12
2023-05-23T06:15:34.064Z,1008.11
2023-05-23T06:16:34.689Z,1008.11
2023-05-23T06:17:34.405Z,1008.07
2023-05-23T06:18:34.484Z,1008.16
2023-05-23T06:19:35.233Z,1008.21
2023-05-23T06:20:35.708Z,1008.15
2023-05-23T06:21:35.621Z,1008.15
2023-05-23T06:22:35.117Z,1008.14
2023-05-23T06:23:35.307Z,1008.27
2023-05-23T06:24:35.471Z,1008.22
2023-05-23T06:25:35.634Z,1008.22
2023-05-23T06:26:35.784Z,1008.29
2023-05-23T06:27:35.966Z,1008.25
2023-05-23T06:28:36.134Z,1008.22
2023-05-23T06:29:37.132Z,1008.14
2023-05-23T06:30:37.753Z,1008.24
2023-05-23T06:31:37.731Z,1008.22
2023-05-23T06:32:38.479Z,1008.12
2023-05-23T06:33:37.573Z,1008.19
2023-05-23T06:34:38.438Z,1008.05
2023-05-23T06:35:37.738Z,1008.08
2023-05-23T06:36:37.634Z,1008.07
2023-05-23T06:37:37.825Z,1008.15
2023-05-23T06:38:38.017Z,1008.10
2023-05-23T06:39:39.116Z,1008.02
2023-05-23T06:40:38.473Z,1008.15
2023-05-23T06:41:38.527Z,1008.25
2023-05-23T06:42:38.703Z,1008.20
2023-05-23T06:43:38.902Z,1008.18
2023-05-23T06:44:39.040Z,1008.17
2023-05-23T06:45:39.260Z,1008.15
2023-05-23T06:46:40.476Z,1008.26
2023-05-23T06:47:40.459Z,1008.24
2023-05-23T06:48:39.860Z,1008.24
2023-05-23T06:49:40.034Z,1008.25
2023-05-23T06:50:41.446Z,1008.24
2023-05-23T06:51:40.468Z,1008.24
2023-05-23T06:52:40.631Z,1008.29
2023-05-23T06:53:41.144Z,1008.35
2023-05-23T06:54:41.632Z,1008.34
2023-05-23T06:55:42.949Z,1008.32
2023-05-23T06:56:41.339Z,1008.35
2023-05-23T06:57:43.581Z,1008.30
2023-05-23T06:59:42.633Z,1008.40
2023-05-23T07:00:42.344Z,1008.45
2023-05-23T07:01:43.193Z,1008.48
2023-05-23T07:02:42.504Z,1008.40
2023-05-23T07:03:42.680Z,1008.49
2023-05-23T07:04:42.869Z,1008.47
2023-05-23T07:05:43.199Z,1008.51
2023-05-23T07:06:43.381Z,1008.46
2023-05-23T07:07:44.089Z,1008.50
2023-05-23T07:08:43.671Z,1008.45
2023-05-23T07:09:43.757Z,1008.56
2023-05-23T07:10:43.986Z,1008.51
2023-05-23T07:11:44.184Z,1008.55
2023-05-23T07:12:45.084Z,1008.56
2023-05-23T07:13:45.085Z,1008.55
2023-05-23T07:14:44.695Z,1008.54
2023-05-23T07:15:44.860Z,1008.63
2023-05-23T07:16:45.045Z,1008.66
2023-05-23T07:17:45.266Z,1008.64
2023-05-23T07:18:45.434Z,1008.65
2023-05-23T07:19:46.949Z,1008.61
2023-05-23T07:20:47.592Z,1008.64
2023-05-23T07:21:45.984Z,1008.66
2023-05-23T07:22:46.226Z,1008.69
2023-05-23T07:23:47.591Z,1008.68
2023-05-23T07:24:46.452Z,1008.67
2023-05-23T07:26:00.580Z,1008.77
2023-05-23T07:26:48.732Z,1008.80
2023-05-23T07:27:46.868Z,1008.72
2023-05-23T07:28:47.071Z,1008.79
2023-05-23T07:29:47.231Z,1008.77
2023-05-23T07:30:47.514Z,1008.88
2023-05-23T07:31:47.585Z,1009.00
2023-05-23T07:32:47.831Z,1008.93
2023-05-23T07:33:49.115Z,1008.97
2023-05-23T07:34:48.126Z,1009.01
2023-05-23T07:35:48.318Z,1009.02
2023-05-23T07:36:48.491Z,1009.05
2023-05-23T07:37:50.205Z,1009.15
2023-05-23T07:38:48.813Z,1009.13
2023-05-23T07:39:48.988Z,1009.18
2023-05-23T07:40:58.829Z,1009.16
2023-05-23T07:41:51.292Z,1009.11
2023-05-23T07:42:49.538Z,1009.28
2023-05-23T07:43:50.610Z,1009.23
2023-05-23T07:44:49.856Z,1009.21
2023-05-23T07:45:50.146Z,1009.22
2023-05-23T07:46:50.292Z,1009.18
2023-05-23T07:47:50.416Z,1009.26
2023-05-23T07:48:50.502Z,1009.25
2023-05-23T07:49:50.679Z,1009.20
2023-05-23T07:50:50.876Z,1009.17
2023-05-23T07:51:51.058Z,1009.23
2023-05-23T07:52:52.133Z,1009.24
2023-05-23T07:53:51.395Z,1009.34
2023-05-23T07:54:52.092Z,1009.36
2023-05-23T07:55:52.642Z,1009.37
2023-05-23T07:56:51.920Z,1009.42
2023-05-23T07:57:52.087Z,1009.41
2023-05-23T07:58:52.248Z,1009.42
2023-05-23T07:59:52.429Z,1009.41
2023-05-23T08:00:53.298Z,1009.40
2023-05-23T08:01:53.867Z,1009.51
2023-05-23T08:02:53.081Z,1009.49
2023-05-23T08:03:54.161Z,1009.54
2023-05-23T08:04:54.160Z,1009.51
2023-05-23T08:05:53.693Z,1009.54
2023-05-23T08:07:05.000Z,1009.62
2023-05-23T08:07:56.597Z,1009.61
2023-05-23T08:08:54.202Z,1009.66
2023-05-23T08:09:55.100Z,1009.62
2023-05-23T08:10:54.641Z,1009.61
2023-05-23T08:11:55.598Z,1009.62
2023-05-23T08:12:55.004Z,1009.65
2023-05-23T08:13:55.200Z,1009.66
2023-05-23T08:14:57.127Z,1009.64
2023-05-23T08:15:56.147Z,1009.69
2023-05-23T08:16:55.851Z,1009.68
2023-05-23T08:17:55.986Z,1009.68
2023-05-23T08:18:56.165Z,1009.69
2023-05-23T08:19:56.351Z,1009.77
2023-05-23T08:20:58.118Z,1009.69
2023-05-23T08:21:56.761Z,1009.79
2023-05-23T08:22:57.653Z,1009.78
2023-05-23T08:23:57.617Z,1009.84
2023-05-23T08:24:57.294Z,1009.87
2023-05-23T08:25:57.559Z,1009.81
2023-05-23T08:26:58.610Z,1009.85
2023-05-23T08:27:57.866Z,1009.81
2023-05-23T08:28:58.032Z,1009.84
2023-05-23T08:29:58.215Z,1009.88
2023-05-23T08:30:58.414Z,1009.84
2023-05-23T08:31:58.624Z,1009.84
2023-05-23T08:32:59.693Z,1009.81
2023-05-23T08:33:59.628Z,1009.85
2023-05-23T08:34:59.788Z,1009.83
2023-05-23T08:35:59.665Z,1009.85
2023-05-23T08:36:59.314Z,1009.82
2023-05-23T08:37:59.474Z,1009.82
2023-05-23T08:38:59.596Z,1009.83
2023-05-23T08:40:00.682Z,1009.81
2023-05-23T08:40:59.936Z,1009.83
2023-05-23T08:42:00.126Z,1009.86
2023-05-23T08:43:00.282Z,1009.80
2023-05-23T08:44:01.155Z,1009.82
2023-05-23T08:45:00.634Z,1009.82
2023-05-23T08:46:00.824Z,1009.85
2023-05-23T08:47:00.998Z,1009.76
2023-05-23T08:48:01.246Z,1009.80
2023-05-23T08:49:01.355Z,1009.88
2023-05-23T08:50:01.541Z,1009.86
2023-05-23T08:51:03.129Z,1009.88
2023-05-23T08:52:01.878Z,1009.90
2023-05-23T08:53:02.043Z,1009.89
2023-05-23T08:54:03.164Z,1009.85
2023-05-23T08:55:02.464Z,1009.97
2023-05-23T08:56:02.624Z,1009.92
2023-05-23T08:57:03.849Z,1009.91
2023-05-23T08:58:03.682Z,1009.95
2023-05-23T08:59:03.143Z,1009.90
2023-05-23T09:00:06.223Z,1009.98
2023-05-23T09:01:03.556Z,1009.96
2023-05-23T09:02:03.681Z,1009.96
2023-05-23T09:03:03.894Z,1009.96
2023-05-23T09:04:04.627Z,1009.99
2023-05-23T09:05:05.656Z,1010.03
2023-05-23T09:06:04.422Z,1009.97
2023-05-23T09:07:06.129Z,1010.00
2023-05-23T09:08:04.654Z,1010.03
2023-05-23T09:09:05.696Z,1009.99
2023-05-23T09:10:04.974Z,1010.08
2023-05-23T09:11:05.663Z,1010.01
2023-05-23T09:12:06.630Z,1010.05
2023-05-23T09:13:05.528Z,1010.02
2023-05-23T09:14:05.714Z,1010.03
2023-05-23T09:15:05.892Z,1010.06
2023-05-23T09:16:06.122Z,1010.03
2023-05-23T09:17:06.240Z,1010.03
2023-05-23T09:18:08.153Z,1010.07
2023-05-23T09:19:06.651Z,1010.10
2023-05-23T09:20:06.766Z,1010.11
2023-05-23T09:21:07.628Z,1010.15
2023-05-23T09:22:07.169Z,1010.17
2023-05-23T09:23:07.343Z,1010.18
2023-05-23T09:24:07.524Z,1010.19
2023-05-23T09:25:08.644Z,1010.18
2023-05-23T09:26:07.931Z,1010.16
2023-05-23T09:27:08.143Z,1010.19
2023-05-23T09:28:08.331Z,1010.21
2023-05-23T09:29:08.522Z,1010.23
2023-05-23T09:30:08.717Z,1010.22
2023-05-23T09:31:08.977Z,1010.17
2023-05-23T09:32:09.100Z,1010.19
2023-05-23T09:33:09.286Z,1010.17
2023-05-23T09:34:09.491Z,1010.14
2023-05-23T09:35:10.630Z,1010.14
2023-05-23T09:36:10.634Z,1010.15
2023-05-23T09:37:10.024Z,1010.08
2023-05-23T09:38:10.219Z,1010.12
2023-05-23T09:39:10.680Z,1010.14
2023-05-23T09:40:10.791Z,1010.12
2023-05-23T09:41:11.824Z,1010.09
2023-05-23T09:42:12.499Z,1010.10
2023-05-23T09:43:11.162Z,1010.07
2023-05-23T09:44:12.134Z,1010.09
2023-05-23T09:45:11.523Z,1010.09
2023-05-23T09:46:11.694Z,1010.06
2023-05-23T09:47:13.644Z,1010.07
2023-05-23T09:48:13.174Z,1010.08
2023-05-23T09:49:12.238Z,1010.07
2023-05-23T09:50:12.329Z,1010.13
2023-05-23T09:51:12.473Z,1010.18
2023-05-23T09:52:12.642Z,1010.20
2023-05-23T09:53:12.779Z,1010.11
2023-05-23T09:54:12.952Z,1010.16
2023-05-23T09:55:13.645Z,1010.22
2023-05-23T09:56:13.272Z,1010.13
2023-05-23T09:57:13.416Z,1010.15
2023-05-23T09:58:13.553Z,1010.13
2023-05-23T09:59:13.734Z,1010.17
2023-05-23T10:00:14.263Z,1010.15
2023-05-23T10:01:14.140Z,1010.15
2023-05-23T10:02:15.217Z,1010.17
2023-05-23T10:03:14.554Z,1010.22
2023-05-23T10:04:14.607Z,1010.22
2023-05-23T10:05:14.784Z,1010.20
2023-05-23T10:06:16.637Z,1010.26
2023-05-23T10:07:15.124Z,1010.34
2023-05-23T10:08:15.291Z,1010.36
2023-05-23T10:09:15.436Z,1010.28
2023-05-23T10:10:16.196Z,1010.36
2023-05-23T10:11:16.186Z,1010.33
2023-05-23T10:12:15.945Z,1010.38
2023-05-23T10:13:16.681Z,1010.41
2023-05-23T10:14:16.311Z,1010.37
2023-05-23T10:15:16.484Z,1010.39
2023-05-23T10:16:16.726Z,1010.41
2023-05-23T10:17:17.722Z,1010.41
2023-05-23T10:18:17.639Z,1010.41
2023-05-23T10:19:17.183Z,1010.46
2023-05-23T10:20:17.372Z,1010.51
2023-05-23T10:21:17.557Z,1010.47
2023-05-23T10:22:17.721Z,1010.53
2023-05-23T10:23:18.713Z,1010.45
2023-05-23T10:24:18.103Z,1010.51
2023-05-23T10:25:18.694Z,1010.48
2023-05-23T10:26:20.147Z,1010.59
2023-05-23T10:27:18.673Z,1010.54
2023-05-23T10:28:18.840Z,1010.59
2023-05-23T10:29:19.686Z,1010.62
2023-05-23T10:30:19.716Z,1010.61
2023-05-23T10:31:19.420Z,1010.62
2023-05-23T10:32:19.628Z,1010.68
2023-05-23T10:33:20.687Z,1010.67
2023-05-23T10:34:20.201Z,1010.72
2023-05-23T10:35:20.650Z,1010.79
2023-05-23T10:36:21.275Z,1010.74
2023-05-23T10:37:21.188Z,1010.82
2023-05-23T10:38:21.145Z,1010.83
2023-05-23T10:39:20.866Z,1010.90
2023-05-23T10:40:20.960Z,1010.92
2023-05-23T10:41:21.170Z,1010.98
2023-05-23T10:42:21.402Z,1010.91
2023-05-23T10:43:22.145Z,1011.01
2023-05-23T10:44:21.829Z,1010.91
2023-05-23T10:45:22.200Z,1011.03
2023-05-23T10:46:22.492Z,1011.01
2023-05-23T10:47:24.239Z,1010.99
2023-05-23T10:48:22.695Z,1011.05
2023-05-23T10:49:22.762Z,1010.94
2023-05-23T10:50:23.197Z,1011.03
2023-05-23T10:51:23.034Z,1010.98
2023-05-23T10:52:23.245Z,1011.05
2023-05-23T10:53:23.536Z,1011.01
2023-05-23T10:54:24.186Z,1011.09
2023-05-23T10:55:23.887Z,1011.12
2023-05-23T10:56:24.130Z,1011.12
2023-05-23T10:57:24.263Z,1011.08
2023-05-23T10:58:26.043Z,1011.12
2023-05-23T10:59:24.725Z,1011.08
2023-05-23T11:00:24.967Z,1011.12
2023-05-23T11:01:25.088Z,1011.19
2023-05-23T11:02:28.108Z,1011.15
2023-05-23T11:03:25.519Z,1011.14
2023-05-23T11:04:25.624Z,1011.19
2023-05-23T11:05:25.698Z,1011.24
2023-05-23T11:06:25.914Z,1011.27
2023-05-23T11:07:26.120Z,1011.29
2023-05-23T11:08:35.426Z,1011.31
2023-05-23T11:09:29.248Z,1011.32
2023-05-23T11:10:26.806Z,1011.26
2023-05-23T11:11:27.697Z,1011.30
2023-05-23T11:12:27.263Z,1011.24
2023-05-23T11:13:27.482Z,1011.30
2023-05-23T11:14:27.668Z,1011.30
2023-05-23T11:15:28.713Z,1011.29
2023-05-23T11:16:28.028Z,1011.29
2023-05-23T11:17:28.223Z,1011.35
2023-05-23T11:18:29.118Z,1011.35
2023-05-23T11:19:29.430Z,1011.44
2023-05-23T11:20:29.216Z,1011.46
2023-05-23T11:21:28.898Z,1011.40
2023-05-23T11:22:29.115Z,1011.38
2023-05-23T11:23:31.158Z,1011.40
2023-05-23T11:24:29.401Z,1011.49
2023-05-23T11:25:30.656Z,1011.42
2023-05-23T11:26:30.702Z,1011.41
2023-05-23T11:27:30.699Z,1011.43
2023-05-23T11:28:32.173Z,1011.41
2023-05-23T11:29:31.025Z,1011.40
2023-05-23T11:30:30.585Z,1011.35
2023-05-23T11:31:30.806Z,1011.39
2023-05-23T11:32:30.886Z,1011.38
2023-05-23T11:33:32.660Z,1011.25
2023-05-23T11:34:31.274Z,1011.20
2023-05-23T11:35:31.472Z,1011.18
2023-05-23T11:36:31.652Z,1011.23
2023-05-23T11:37:32.704Z,1011.15
2023-05-23T11:38:31.980Z,1011.18
2023-05-23T11:39:33.023Z,1011.13
2023-05-23T11:40:33.176Z,1011.11
2023-05-23T11:41:32.467Z,1010.96
2023-05-23T11:42:32.631Z,1010.93
2023-05-23T11:43:32.809Z,1010.83
2023-05-23T11:44:33.669Z,1010.80
2023-05-23T11:45:33.281Z,1010.71
2023-05-23T11:46:33.829Z,1010.70
2023-05-23T11:47:34.206Z,1010.62
2023-05-23T11:48:34.730Z,1010.55
2023-05-23T11:49:35.708Z,1010.58
2023-05-23T11:50:34.086Z,1010.48
2023-05-23T11:51:34.292Z,1010.41
2023-05-23T11:52:34.474Z,1010.43
2023-05-23T11:53:34.650Z,1010.51
2023-05-23T11:54:35.703Z,1010.37
2023-05-23T11:55:34.939Z,1010.36
2023-05-23T11:56:35.112Z,1010.37
2023-05-23T11:57:35.312Z,1010.50
2023-05-23T11:58:36.190Z,1010.50
2023-05-23T11:59:35.597Z,1010.54
2023-05-23T12:00:35.772Z,1010.52
2023-05-23T12:01:36.757Z,1010.59
2023-05-23T12:02:36.264Z,1010.55
2023-05-23T12:03:36.458Z,1010.61
2023-05-23T12:04:36.567Z,1010.61
2023-05-23T12:05:36.698Z,1010.66
2023-05-23T12:06:36.903Z,1010.70
2023-05-23T12:07:37.115Z,1010.68
2023-05-23T12:08:37.224Z,1010.71